Johnson Lake, Nebraska
Current Conditions -  °F | °C
As of 7:55 AM on Thursday 23 Oct 2014 (Local Time) from KLXN Reporting Station
Moderate Fog Moderate Fog  
Wind Chill: 47°   Ceiling: 100
Heat Index: 47°   Visibility: 0.25mi
Dew Point: 46°   Wind: 3mph
Humidity: 99%   Direction: 290°WNW
Pressure: 30.08"   Gusts: NA
Location:  40.5034°N, 99.8442°W
Report Text: KLXN 231255Z AUTO 29003KT 1/4SM FG OVC001 08/08 A3008 RMK AO2 T00820080
Loading
Personal Weather Stations






























Interactive Weather Map
Tropical Storm Tracking
New forecast layout! Learn more

10-Day Weather Forecast

Advertisements
Track Severe Weather on mobile